createdAt,value
2023-05-15T00:01:33.237Z,12.23
2023-05-15T00:04:02.235Z,12.17
2023-05-15T00:06:31.904Z,12.11
2023-05-15T00:09:00.299Z,12.16
2023-05-15T00:11:28.881Z,12.25
2023-05-15T00:13:57.267Z,12.21
2023-05-15T00:16:25.736Z,12.21
2023-05-15T00:18:54.206Z,12.24
2023-05-15T00:21:22.554Z,12.18
2023-05-15T00:23:54.036Z,12.18
2023-05-15T00:26:25.062Z,12.20
2023-05-15T00:28:53.417Z,12.21
2023-05-15T00:31:21.986Z,12.22
2023-05-15T00:33:50.321Z,12.28
2023-05-15T00:36:21.558Z,12.29
2023-05-15T00:38:50.006Z,12.26
2023-05-15T00:41:21.666Z,12.19
2023-05-15T00:43:51.550Z,12.18
2023-05-15T00:46:21.629Z,12.21
2023-05-15T00:48:51.717Z,12.22
2023-05-15T00:51:20.201Z,12.27
2023-05-15T00:53:48.752Z,12.23
2023-05-15T00:56:26.251Z,12.19
2023-05-15T00:58:56.579Z,12.20
2023-05-15T01:01:25.733Z,12.17
2023-05-15T01:03:54.728Z,12.14
2023-05-15T01:06:23.087Z,12.09
2023-05-15T01:08:52.818Z,12.05
2023-05-15T01:11:22.394Z,12.02
2023-05-15T01:13:52.111Z,12.00
2023-05-15T01:16:22.515Z,12.03
2023-05-15T01:18:50.839Z,12.04
2023-05-15T01:21:48.712Z,12.01
2023-05-15T01:24:33.261Z,12.02
2023-05-15T01:27:13.865Z,11.99
2023-05-15T01:29:49.259Z,12.01
2023-05-15T01:32:21.575Z,12.02
2023-05-15T01:34:56.462Z,11.98
2023-05-15T01:37:27.570Z,12.00
2023-05-15T01:40:01.785Z,12.06
2023-05-15T01:42:35.406Z,12.10
2023-05-15T01:45:07.190Z,12.09
2023-05-15T01:47:42.202Z,12.10
2023-05-15T01:50:14.484Z,12.12
2023-05-15T01:52:45.938Z,12.07
2023-05-15T01:55:16.062Z,12.00
2023-05-15T01:57:48.246Z,11.97
2023-05-15T02:00:18.245Z,11.94
2023-05-15T02:02:47.247Z,11.97
2023-05-15T02:05:16.214Z,12.00
2023-05-15T02:07:46.414Z,11.99
2023-05-15T02:10:15.466Z,12.01
2023-05-15T02:12:46.016Z,12.05
2023-05-15T02:15:18.463Z,12.07
2023-05-15T02:17:46.905Z,12.09
2023-05-15T02:20:15.542Z,12.06
2023-05-15T02:22:43.901Z,12.07
2023-05-15T02:25:12.278Z,12.06
2023-05-15T02:27:52.704Z,12.06
2023-05-15T02:30:32.079Z,12.05
2023-05-15T02:33:19.383Z,12.02
2023-05-15T02:35:52.449Z,12.05
2023-05-15T02:38:28.096Z,12.07
2023-05-15T02:40:58.015Z,12.12
2023-05-15T02:43:28.486Z,12.19
2023-05-15T02:45:58.108Z,12.19
2023-05-15T02:48:27.322Z,12.19
2023-05-15T02:50:56.173Z,12.17
2023-05-15T02:53:24.550Z,12.20
2023-05-15T02:55:53.211Z,12.25
2023-05-15T02:58:21.637Z,12.24
2023-05-15T03:00:51.496Z,12.19
2023-05-15T03:03:19.891Z,12.17
2023-05-15T03:05:48.412Z,12.16
2023-05-15T03:08:16.734Z,12.12
2023-05-15T03:10:45.285Z,12.10
2023-05-15T03:13:13.635Z,12.10
2023-05-15T03:15:41.979Z,12.12
2023-05-15T03:18:11.838Z,12.14
2023-05-15T03:20:40.717Z,12.16
2023-05-15T03:23:09.030Z,12.20
2023-05-15T03:25:37.356Z,12.24
2023-05-15T03:28:05.797Z,12.30
2023-05-15T03:30:34.127Z,12.35
2023-05-15T03:33:03.882Z,12.37
2023-05-15T03:35:33.798Z,12.41
2023-05-15T03:38:02.285Z,12.44
2023-05-15T03:40:31.079Z,12.46
2023-05-15T03:42:59.494Z,12.49
2023-05-15T03:45:28.219Z,12.49
2023-05-15T03:47:56.810Z,12.49
2023-05-15T03:50:25.393Z,12.47
2023-05-15T03:52:55.330Z,12.41
2023-05-15T03:55:23.853Z,12.40
2023-05-15T03:57:52.423Z,12.36
2023-05-15T04:00:21.030Z,12.29
2023-05-15T04:02:59.451Z,12.18
2023-05-15T04:05:28.050Z,12.13
2023-05-15T04:07:57.970Z,12.13
2023-05-15T04:10:26.520Z,12.13
2023-05-15T04:12:55.019Z,12.18
2023-05-15T04:15:25.713Z,12.28
2023-05-15T04:17:55.147Z,12.35
2023-05-15T04:20:24.634Z,12.41
2023-05-15T04:22:53.895Z,12.45
2023-05-15T04:25:24.665Z,12.48
2023-05-15T04:27:53.372Z,12.50
2023-05-15T04:30:22.074Z,12.51
2023-05-15T04:32:51.816Z,12.50
2023-05-15T04:35:20.265Z,12.51
2023-05-15T04:37:50.258Z,12.51
2023-05-15T04:40:18.695Z,12.53
2023-05-15T04:42:48.398Z,12.55
2023-05-15T04:45:16.810Z,12.57
2023-05-15T04:47:45.588Z,12.58
2023-05-15T04:50:13.941Z,12.62
2023-05-15T04:52:43.057Z,12.64
2023-05-15T04:55:11.558Z,12.64
2023-05-15T04:57:41.222Z,12.65
2023-05-15T05:00:12.585Z,12.63
2023-05-15T05:02:46.731Z,12.64
2023-05-15T05:05:15.696Z,12.66
2023-05-15T05:07:45.779Z,12.65
2023-05-15T05:10:14.229Z,12.59
2023-05-15T05:12:47.928Z,12.59
2023-05-15T05:15:17.720Z,12.59
2023-05-15T05:17:46.106Z,12.57
2023-05-15T05:20:14.607Z,12.57
2023-05-15T05:22:42.991Z,12.57
2023-05-15T05:25:11.829Z,12.55
2023-05-15T05:27:41.074Z,12.57
2023-05-15T05:30:10.555Z,12.56
2023-05-15T05:32:43.230Z,12.52
2023-05-15T05:35:11.613Z,12.50
2023-05-15T05:37:48.651Z,12.51
2023-05-15T05:40:17.689Z,12.53
2023-05-15T05:42:46.053Z,12.51
2023-05-15T05:45:14.435Z,12.43
2023-05-15T05:47:44.495Z,12.41
2023-05-15T05:50:13.038Z,12.42
2023-05-15T05:52:42.533Z,12.43
2023-05-15T05:55:11.207Z,12.45
2023-05-15T05:57:40.669Z,12.44
2023-05-15T06:00:10.905Z,12.39
2023-05-15T06:02:40.829Z,12.29
2023-05-15T06:05:11.317Z,12.17
2023-05-15T06:07:40.405Z,12.13
2023-05-15T06:10:09.781Z,12.11
2023-05-15T06:12:38.470Z,12.14
2023-05-15T06:15:08.107Z,12.16
2023-05-15T06:17:37.827Z,12.21
2023-05-15T06:20:08.474Z,12.25
2023-05-15T06:22:39.644Z,12.24
2023-05-15T06:25:13.641Z,12.22
2023-05-15T06:27:42.587Z,12.20
2023-05-15T06:30:12.230Z,12.21
2023-05-15T06:32:41.495Z,12.26
2023-05-15T06:35:11.168Z,12.30
2023-05-15T06:37:40.946Z,12.35
2023-05-15T06:40:10.503Z,12.39
2023-05-15T06:42:40.154Z,12.44
2023-05-15T06:45:09.802Z,12.49
2023-05-15T06:47:41.259Z,12.53
2023-05-15T06:50:10.753Z,12.55
2023-05-15T06:52:41.960Z,12.55
2023-05-15T06:55:12.384Z,12.59
2023-05-15T06:57:41.219Z,12.65
2023-05-15T07:00:20.088Z,12.64
2023-05-15T07:02:48.524Z,12.66
2023-05-15T07:05:17.012Z,12.70
2023-05-15T07:07:47.072Z,12.73
2023-05-15T07:10:15.472Z,12.73
2023-05-15T07:12:47.082Z,12.74
2023-05-15T07:15:17.607Z,12.77
2023-05-15T07:17:46.126Z,12.79
2023-05-15T07:20:14.614Z,12.83
2023-05-15T07:22:54.926Z,12.87
2023-05-15T07:25:26.020Z,12.90
2023-05-15T07:27:54.574Z,12.92
2023-05-15T07:30:23.965Z,12.96
2023-05-15T07:32:52.530Z,12.97
2023-05-15T07:35:20.965Z,12.99
2023-05-15T07:37:49.425Z,13.01
2023-05-15T07:40:17.845Z,13.04
2023-05-15T07:42:47.852Z,13.07
2023-05-15T07:45:16.483Z,13.10
2023-05-15T07:47:46.915Z,13.11
2023-05-15T07:50:15.623Z,13.14
2023-05-15T07:52:44.308Z,13.18
2023-05-15T07:55:13.191Z,13.20
2023-05-15T07:57:42.035Z,13.20
2023-05-15T08:00:13.686Z,13.21
2023-05-15T08:02:52.220Z,13.26
2023-05-15T08:05:20.637Z,13.33
2023-05-15T08:07:49.066Z,13.37
2023-05-15T08:10:17.491Z,13.41
2023-05-15T08:12:47.128Z,13.48
2023-05-15T08:15:16.975Z,13.54
2023-05-15T08:17:45.584Z,13.59
2023-05-15T08:20:14.561Z,13.62
2023-05-15T08:22:42.943Z,13.66
2023-05-15T08:25:11.618Z,13.72
2023-05-15T08:27:41.267Z,13.79
2023-05-15T08:30:10.572Z,13.86
2023-05-15T08:32:40.623Z,13.96
2023-05-15T08:35:09.695Z,14.06
2023-05-15T08:37:39.563Z,14.14
2023-05-15T08:40:09.367Z,14.21
2023-05-15T08:42:44.055Z,14.28
2023-05-15T08:45:13.825Z,14.35
2023-05-15T08:47:44.319Z,14.42
2023-05-15T08:50:15.199Z,14.46
2023-05-15T08:52:45.515Z,14.50
2023-05-15T08:55:14.888Z,14.52
2023-05-15T08:57:44.022Z,14.57
2023-05-15T09:00:23.340Z,14.62
2023-05-15T09:02:55.164Z,14.63
2023-05-15T09:05:23.813Z,14.61
2023-05-15T09:07:54.747Z,14.59
2023-05-15T09:10:24.030Z,14.56
2023-05-15T09:12:53.320Z,14.54
2023-05-15T09:15:25.518Z,14.47
2023-05-15T09:17:56.054Z,14.41
2023-05-15T09:20:29.516Z,14.38
2023-05-15T09:22:58.606Z,14.35
2023-05-15T09:25:39.603Z,14.27
2023-05-15T09:28:11.672Z,14.20
2023-05-15T09:30:42.978Z,14.18
2023-05-15T09:33:13.379Z,14.21
2023-05-15T09:35:41.774Z,14.21
2023-05-15T09:38:11.573Z,14.24
2023-05-15T09:40:41.615Z,14.27
2023-05-15T09:43:18.592Z,14.32
2023-05-15T09:45:48.557Z,14.36
2023-05-15T09:48:19.134Z,14.39
2023-05-15T09:50:49.220Z,14.37
2023-05-15T09:53:21.445Z,14.39
2023-05-15T09:55:50.994Z,14.41
2023-05-15T09:58:20.202Z,14.45
2023-05-15T10:00:49.600Z,14.50
2023-05-15T10:03:21.147Z,14.56
2023-05-15T10:05:49.724Z,14.60
2023-05-15T10:08:28.448Z,14.63
2023-05-15T10:11:01.137Z,14.61
2023-05-15T10:13:33.024Z,14.60
2023-05-15T10:16:03.785Z,14.55
2023-05-15T10:18:35.134Z,14.50
2023-05-15T10:21:04.696Z,14.49
2023-05-15T10:23:37.554Z,14.52
2023-05-15T10:26:12.242Z,14.66
2023-05-15T10:28:44.807Z,14.83
2023-05-15T10:31:14.890Z,15.00
2023-05-15T10:33:45.351Z,15.15
2023-05-15T10:36:16.712Z,15.33
2023-05-15T10:38:47.391Z,15.50
2023-05-15T10:41:19.231Z,15.64
2023-05-15T10:43:49.986Z,15.73
2023-05-15T10:46:19.799Z,15.84
2023-05-15T10:48:49.712Z,15.88
2023-05-15T10:51:19.173Z,15.99
2023-05-15T10:53:47.690Z,16.14
2023-05-15T10:56:17.182Z,16.19
2023-05-15T10:58:48.082Z,16.10
2023-05-15T11:01:31.910Z,15.87
2023-05-15T11:04:13.308Z,15.41
2023-05-15T11:06:43.977Z,15.04
2023-05-15T11:09:41.022Z,14.82
2023-05-15T11:12:11.685Z,14.77
2023-05-15T11:14:43.988Z,14.73
2023-05-15T11:17:15.448Z,14.68
2023-05-15T11:20:00.938Z,14.66
2023-05-15T11:22:31.895Z,14.71
2023-05-15T11:25:02.263Z,14.74
2023-05-15T11:27:33.050Z,14.83
2023-05-15T11:30:13.284Z,14.93
2023-05-15T11:32:44.205Z,15.04
2023-05-15T11:35:15.419Z,15.15
2023-05-15T11:37:44.969Z,15.20
2023-05-15T11:40:21.346Z,15.24
2023-05-15T11:43:06.062Z,15.30
2023-05-15T11:45:36.811Z,15.28
2023-05-15T11:48:07.658Z,15.30
2023-05-15T11:50:37.448Z,15.35
2023-05-15T11:53:07.678Z,15.40
2023-05-15T11:55:38.315Z,15.45
2023-05-15T11:58:07.333Z,15.54
2023-05-15T12:00:35.758Z,15.65
2023-05-15T12:03:04.931Z,15.86
2023-05-15T12:05:33.556Z,15.89
2023-05-15T12:08:03.575Z,15.89
2023-05-15T12:10:32.674Z,15.87
2023-05-15T12:13:01.380Z,15.83
2023-05-15T12:15:29.859Z,15.76
2023-05-15T12:17:58.284Z,15.72
2023-05-15T12:20:27.304Z,15.74
2023-05-15T12:22:55.829Z,15.74
2023-05-15T12:25:26.020Z,15.69
2023-05-15T12:27:54.513Z,15.61
2023-05-15T12:30:23.426Z,15.56
2023-05-15T12:32:52.717Z,15.60
2023-05-15T12:35:23.705Z,15.55
2023-05-15T12:37:58.786Z,15.46
2023-05-15T12:40:28.770Z,15.40
2023-05-15T12:42:57.269Z,15.36
2023-05-15T12:45:26.451Z,15.40
2023-05-15T12:47:54.952Z,15.43
2023-05-15T12:50:24.440Z,15.45
2023-05-15T12:52:54.186Z,15.47
2023-05-15T12:55:27.138Z,15.48
2023-05-15T12:57:58.749Z,15.48
2023-05-15T13:00:29.807Z,15.53
2023-05-15T13:02:59.416Z,15.64
2023-05-15T13:05:28.845Z,15.73
2023-05-15T13:08:00.349Z,15.96
2023-05-15T13:10:28.888Z,16.21
2023-05-15T13:12:58.994Z,16.35
2023-05-15T13:15:31.590Z,16.33
2023-05-15T13:18:01.994Z,16.30
2023-05-15T13:20:34.000Z,16.24
2023-05-15T13:23:02.944Z,16.13
2023-05-15T13:25:32.354Z,16.06
2023-05-15T13:28:04.730Z,16.05
2023-05-15T13:30:34.141Z,16.07
2023-05-15T13:33:03.645Z,16.09
2023-05-15T13:35:32.765Z,16.04
2023-05-15T13:38:01.501Z,16.00
2023-05-15T13:40:31.101Z,15.98
2023-05-15T13:42:59.494Z,15.99
2023-05-15T13:45:29.252Z,16.01
2023-05-15T13:47:57.641Z,16.04
2023-05-15T13:50:26.278Z,16.04
2023-05-15T13:52:55.972Z,16.07
2023-05-15T13:55:25.735Z,16.10
2023-05-15T13:57:55.036Z,16.14
2023-05-15T14:00:23.730Z,16.15
2023-05-15T14:02:53.656Z,16.15
2023-05-15T14:05:22.174Z,16.18
2023-05-15T14:07:50.573Z,16.24
2023-05-15T14:10:18.957Z,16.36
2023-05-15T14:12:47.413Z,16.51
2023-05-15T14:15:15.850Z,16.72
2023-05-15T14:17:54.898Z,16.90
2023-05-15T14:20:23.578Z,16.99
2023-05-15T14:22:52.132Z,17.01
2023-05-15T14:25:20.597Z,16.99
2023-05-15T14:27:48.947Z,17.03
2023-05-15T14:30:17.427Z,17.07
2023-05-15T14:32:46.380Z,17.02
2023-05-15T14:35:16.198Z,16.91
2023-05-15T14:37:45.238Z,16.81
2023-05-15T14:40:14.935Z,16.71
2023-05-15T14:42:44.450Z,16.61
2023-05-15T14:45:13.266Z,16.44
2023-05-15T14:47:41.807Z,16.31
2023-05-15T14:50:10.709Z,16.24
2023-05-15T14:52:41.307Z,16.22
2023-05-15T14:55:10.728Z,16.10
2023-05-15T14:57:40.174Z,16.00
2023-05-15T15:00:09.902Z,15.92
2023-05-15T15:02:38.498Z,15.80
2023-05-15T15:05:07.784Z,15.67
2023-05-15T15:08:02.188Z,15.64
2023-05-15T15:10:31.218Z,15.70
2023-05-15T15:13:00.277Z,15.78
2023-05-15T15:15:28.989Z,15.78
2023-05-15T15:17:58.320Z,15.79
2023-05-15T15:20:27.697Z,15.88
2023-05-15T15:22:57.142Z,15.87
2023-05-15T15:25:26.956Z,15.87
2023-05-15T15:27:55.413Z,15.90
2023-05-15T15:30:23.965Z,15.92
2023-05-15T15:32:54.561Z,15.92
2023-05-15T15:35:23.335Z,16.01
2023-05-15T15:37:53.118Z,16.07
2023-05-15T15:40:23.701Z,16.14
2023-05-15T15:42:54.303Z,16.33
2023-05-15T15:45:22.808Z,16.42
2023-05-15T15:47:51.256Z,16.44
2023-05-15T15:50:19.911Z,16.39
2023-05-15T15:52:48.233Z,16.39
2023-05-15T15:55:16.608Z,16.39
2023-05-15T15:57:47.911Z,16.42
2023-05-15T16:00:18.399Z,16.41
2023-05-15T16:02:47.011Z,16.37
2023-05-15T16:05:15.615Z,16.29
2023-05-15T16:07:45.746Z,16.22
2023-05-15T16:10:17.460Z,16.13
2023-05-15T16:12:46.784Z,16.08
2023-05-15T16:15:23.150Z,16.05
2023-05-15T16:17:54.954Z,16.03
2023-05-15T16:20:24.380Z,16.04
2023-05-15T16:22:53.250Z,16.07
2023-05-15T16:25:21.870Z,16.10
2023-05-15T16:27:50.410Z,16.12
2023-05-15T16:30:18.944Z,16.12
2023-05-15T16:32:48.609Z,16.12
2023-05-15T16:35:20.620Z,16.15
2023-05-15T16:37:49.566Z,16.23
2023-05-15T16:40:18.131Z,16.32
2023-05-15T16:42:47.042Z,16.41
2023-05-15T16:45:16.385Z,16.50
2023-05-15T16:47:45.534Z,16.59
2023-05-15T16:50:14.312Z,16.54
2023-05-15T16:52:47.219Z,16.43
2023-05-15T16:55:16.680Z,16.26
2023-05-15T16:57:55.652Z,16.18
2023-05-15T17:00:24.332Z,16.09
2023-05-15T17:02:52.959Z,16.04
2023-05-15T17:05:21.375Z,16.05
2023-05-15T17:07:51.205Z,16.03
2023-05-15T17:10:19.627Z,16.00
2023-05-15T17:12:48.066Z,15.94
2023-05-15T17:15:16.516Z,15.85
2023-05-15T17:17:45.684Z,15.82
2023-05-15T17:20:20.353Z,15.78
2023-05-15T17:22:56.077Z,15.74
2023-05-15T17:25:29.595Z,15.65
2023-05-15T17:27:57.949Z,15.58
2023-05-15T17:30:26.439Z,15.47
2023-05-15T17:32:54.979Z,15.35
2023-05-15T17:35:23.693Z,15.29
2023-05-15T17:37:57.850Z,15.21
2023-05-15T17:40:26.248Z,15.12
2023-05-15T17:42:54.661Z,15.04
2023-05-15T17:45:23.046Z,15.01
2023-05-15T17:47:51.519Z,14.98
2023-05-15T17:50:20.121Z,14.96
2023-05-15T17:52:48.545Z,14.94
2023-05-15T17:55:18.383Z,14.93
2023-05-15T17:57:49.850Z,14.93
2023-05-15T18:00:19.582Z,14.98
2023-05-15T18:02:48.087Z,15.02
2023-05-15T18:05:17.153Z,15.03
2023-05-15T18:07:49.205Z,15.04
2023-05-15T18:10:18.956Z,15.05
2023-05-15T18:12:48.601Z,15.06
2023-05-15T18:15:17.099Z,15.05
2023-05-15T18:17:46.678Z,15.04
2023-05-15T18:20:15.131Z,14.98
2023-05-15T18:22:45.304Z,14.89
2023-05-15T18:25:19.596Z,14.75
2023-05-15T18:27:48.289Z,14.65
2023-05-15T18:30:16.741Z,14.58
2023-05-15T18:32:48.436Z,14.52
2023-05-15T18:35:17.182Z,14.49
2023-05-15T18:37:47.913Z,14.44
2023-05-15T18:40:16.378Z,14.39
2023-05-15T18:42:47.958Z,14.36
2023-05-15T18:45:16.591Z,14.39
2023-05-15T18:47:48.284Z,14.43
2023-05-15T18:50:16.868Z,14.43
2023-05-15T18:52:47.212Z,14.43
2023-05-15T18:55:15.888Z,14.46
2023-05-15T18:57:49.842Z,14.48
2023-05-15T19:00:26.714Z,14.48
2023-05-15T19:03:05.817Z,14.48
2023-05-15T19:05:34.735Z,14.44
2023-05-15T19:08:03.269Z,14.43
2023-05-15T19:10:32.028Z,14.41
2023-05-15T19:13:01.874Z,14.36
2023-05-15T19:15:30.417Z,14.40
2023-05-15T19:17:59.277Z,14.43
2023-05-15T19:20:27.960Z,14.38
2023-05-15T19:22:56.607Z,14.37
2023-05-15T19:25:25.289Z,14.39
2023-05-15T19:27:54.328Z,14.31
2023-05-15T19:30:24.232Z,14.24
2023-05-15T19:32:53.754Z,14.24
2023-05-15T19:35:22.186Z,14.25
2023-05-15T19:37:50.858Z,14.29
2023-05-15T19:40:19.413Z,14.31
2023-05-15T19:42:49.182Z,14.31
2023-05-15T19:45:17.705Z,14.28
2023-05-15T19:47:57.575Z,14.25
2023-05-15T19:50:26.276Z,14.23
2023-05-15T19:52:54.834Z,14.23
2023-05-15T19:55:23.333Z,14.26
2023-05-15T19:57:56.154Z,14.24
2023-05-15T20:00:25.156Z,14.17
2023-05-15T20:02:53.836Z,14.14
2023-05-15T20:05:23.767Z,14.08
2023-05-15T20:07:52.996Z,14.06
2023-05-15T20:10:21.763Z,14.02
2023-05-15T20:12:51.071Z,13.99
2023-05-15T20:15:19.487Z,13.98
2023-05-15T20:17:50.193Z,13.90
2023-05-15T20:20:18.651Z,13.88
2023-05-15T20:22:51.333Z,13.82
2023-05-15T20:25:20.488Z,13.82
2023-05-15T20:27:51.161Z,13.86
2023-05-15T20:30:19.719Z,13.88
2023-05-15T20:32:58.187Z,13.91
2023-05-15T20:35:26.830Z,13.96
2023-05-15T20:37:57.514Z,13.97
2023-05-15T20:40:32.524Z,13.94
2023-05-15T20:43:01.326Z,13.94
2023-05-15T20:45:29.944Z,13.97
2023-05-15T20:47:58.577Z,13.99
2023-05-15T20:50:27.414Z,13.97
2023-05-15T20:52:57.316Z,13.95
2023-05-15T20:55:25.876Z,13.92
2023-05-15T20:57:54.998Z,13.89
2023-05-15T21:00:23.492Z,13.86
2023-05-15T21:02:51.961Z,13.89
2023-05-15T21:05:20.520Z,13.91
2023-05-15T21:07:54.366Z,13.93
2023-05-15T21:10:24.333Z,13.87
2023-05-15T21:12:52.793Z,13.86
2023-05-15T21:15:21.139Z,13.82
2023-05-15T21:17:51.103Z,13.80
2023-05-15T21:20:19.646Z,13.77
2023-05-15T21:22:49.946Z,13.78
2023-05-15T21:25:19.192Z,13.78
2023-05-15T21:27:51.515Z,13.77
2023-05-15T21:30:20.103Z,13.78
2023-05-15T21:32:50.966Z,13.72
2023-05-15T21:35:19.389Z,13.74
2023-05-15T21:37:50.170Z,13.77
2023-05-15T21:40:19.083Z,13.81
2023-05-15T21:42:51.169Z,13.81
2023-05-15T21:45:20.126Z,13.83
2023-05-15T21:47:50.507Z,13.81
2023-05-15T21:50:19.098Z,13.78
2023-05-15T21:52:50.334Z,13.77
2023-05-15T21:55:19.340Z,13.77
2023-05-15T21:57:51.386Z,13.74
2023-05-15T22:00:20.219Z,13.72
2023-05-15T22:02:50.054Z,13.71
2023-05-15T22:05:18.690Z,13.73
2023-05-15T22:07:47.211Z,13.68
2023-05-15T22:10:16.563Z,13.69
2023-05-15T22:12:45.108Z,13.67
2023-05-15T22:15:16.761Z,13.65
2023-05-15T22:17:45.202Z,13.64
2023-05-15T22:20:14.232Z,13.62
2023-05-15T22:22:43.209Z,13.59
2023-05-15T22:25:11.626Z,13.57
2023-05-15T22:27:40.037Z,13.54
2023-05-15T22:30:09.899Z,13.52
2023-05-15T22:32:41.270Z,13.52
2023-05-15T22:35:10.760Z,13.52
2023-05-15T22:37:40.756Z,13.51
2023-05-15T22:40:10.291Z,13.48
2023-05-15T22:42:39.996Z,13.41
2023-05-15T22:45:09.733Z,13.39
2023-05-15T22:47:40.013Z,13.43
2023-05-15T22:50:09.695Z,13.49
2023-05-15T22:52:39.027Z,13.53
2023-05-15T22:55:10.284Z,13.57
2023-05-15T22:57:38.664Z,13.59
2023-05-15T23:00:09.959Z,13.63
2023-05-15T23:02:42.593Z,13.63
2023-05-15T23:05:20.076Z,13.64
2023-05-15T23:07:50.870Z,13.65
2023-05-15T23:10:19.289Z,13.66
2023-05-15T23:12:47.786Z,13.66
2023-05-15T23:15:16.314Z,13.61
2023-05-15T23:17:50.863Z,13.56
2023-05-15T23:20:23.377Z,13.44
2023-05-15T23:22:52.024Z,13.39
2023-05-15T23:25:20.619Z,13.37
2023-05-15T23:27:51.344Z,13.34
2023-05-15T23:30:19.891Z,13.26
2023-05-15T23:32:51.936Z,13.16
2023-05-15T23:35:20.614Z,13.08
2023-05-15T23:37:51.645Z,13.01
2023-05-15T23:40:19.992Z,12.96
2023-05-15T23:42:51.611Z,12.93
2023-05-15T23:45:20.357Z,12.87
2023-05-15T23:47:52.820Z,12.90
2023-05-15T23:50:22.115Z,12.93
2023-05-15T23:52:51.727Z,12.90
2023-05-15T23:55:20.356Z,12.89
2023-05-15T23:57:51.192Z,12.90
